Charleston Air Force Base-International Airport
KCHS : now visible

Airfield :











YOU CAN JOIN US ON...

 
LOGIN :

Register | Disclaimer

   EN    FR    IT 

 









Legend :    VFR   Marginal VFR   IFR   Intensive IFR   Very Intensive IFR
Visi :
Ceiling :
>= 8 km
>= 3000ft
5 to 8 km
1000 to 3000 ft
1500m to 5 km
500 to 1000 ft
800 to 1500m
200 to 500 ft
< 800m
< 200 ft
Symbols :   Thunderstorms  Fog  Heavy snow  Heavy precipitations  Wind > 20 kt






- Airport Elevation : 46 ft
- IATA code : CHS


KCHS - Charleston Air Force Base-International

CURRENT METAR :
  • 112056Z 25007KT 10SM SCT045 BKN150 33/23 A2993 RMK AO2 LTG DSNT NE SLP134 CB DSNT NE T03280228 56021

EXPIRED METARs :
  • 111956Z VRB06KT 10SM SCT040 BKN050 BKN150 32/23 A2995 RMK AO2 SLP140 T03170228
  • 111856Z 23008KT 10SM SCT040 BKN150 32/23 A2996 RMK AO2 SLP145 T03220228

TAF KCHS
Valid from the 11 at 18:00 until the 12 at 18:00 UTC


111720Z 1118/1218 23006KT P6SM FEW035 SCT250
FM112000 19010KT P6SM SCT040
FM120200 23004KT P6SM BKN250
KZJX FIR / North America



MET'MAP, your aeronautical weather chart ! - Copyright ORBIFLY December 2007 - Disclaimer

ORBIFLY MET'MAP TEAM :

Programming & Development : Alexandra Zaïnal
Concept & original design : Baudouin d'Aumeries
Assistance for programming : Marc-Olivier Méhu
Technical & hardware support : Manuel Goepfert

Contact : metmap@orbifly.com




SOURCES & CREDITS :

   NOAA       Earth
Advisory